createdAt,value
2019-03-27T00:00:13.108Z,-74
2019-03-27T00:02:42.740Z,-74
2019-03-27T00:05:11.976Z,-74
2019-03-27T00:07:41.314Z,-75
2019-03-27T00:10:10.480Z,-74
2019-03-27T00:12:39.572Z,-74
2019-03-27T00:15:13.706Z,-73
2019-03-27T00:17:42.067Z,-74
2019-03-27T00:20:12.234Z,-73
2019-03-27T00:22:41.598Z,-73
2019-03-27T00:25:11.759Z,-73
2019-03-27T00:27:41.398Z,-73
2019-03-27T00:30:11.112Z,-73
2019-03-27T00:32:40.199Z,-73
2019-03-27T00:35:09.454Z,-73
2019-03-27T00:37:38.567Z,-73
2019-03-27T00:40:09.338Z,-73
2019-03-27T00:42:38.416Z,-75
2019-03-27T00:45:07.995Z,-73
2019-03-27T00:47:37.168Z,-73
2019-03-27T00:50:09.096Z,-76
2019-03-27T00:52:38.421Z,-73
2019-03-27T00:55:08.260Z,-74
2019-03-27T00:57:37.353Z,-74
2019-03-27T01:00:12.326Z,-74
2019-03-27T01:02:41.443Z,-74
2019-03-27T01:05:10.586Z,-74
2019-03-27T01:07:39.923Z,-74
2019-03-27T01:10:09.093Z,-74
2019-03-27T01:12:38.459Z,-74
2019-03-27T01:15:07.888Z,-74
2019-03-27T01:17:36.980Z,-74
2019-03-27T01:20:06.497Z,-75
2019-03-27T01:22:35.708Z,-75
2019-03-27T01:25:06.616Z,-73
2019-03-27T01:27:35.968Z,-74
2019-03-27T01:30:06.798Z,-74
2019-03-27T01:32:35.881Z,-74
2019-03-27T01:35:05.827Z,-74
2019-03-27T01:37:35.189Z,-74
2019-03-27T01:40:04.888Z,-74
2019-03-27T01:42:34.054Z,-74
2019-03-27T01:45:03.623Z,-73
2019-03-27T01:47:33.009Z,-74
2019-03-27T01:50:02.147Z,-74
2019-03-27T01:52:31.576Z,-74
2019-03-27T01:55:00.675Z,-74
2019-03-27T01:57:29.841Z,-73
2019-03-27T01:59:59.172Z,-74
2019-03-27T02:02:28.420Z,-74
2019-03-27T02:04:57.891Z,-74
2019-03-27T02:07:27.299Z,-74
2019-03-27T02:09:56.758Z,-74
2019-03-27T02:12:26.136Z,-74
2019-03-27T02:14:55.274Z,-74
2019-03-27T02:17:24.382Z,-74
2019-03-27T02:19:53.769Z,-74
2019-03-27T02:22:22.897Z,-74
2019-03-27T02:24:52.013Z,-72
2019-03-27T02:27:21.117Z,-74
2019-03-27T02:29:50.342Z,-74
2019-03-27T02:32:20.880Z,-74
2019-03-27T02:34:50.432Z,-74
2019-03-27T02:37:19.505Z,-74
2019-03-27T02:39:48.835Z,-72
2019-03-27T02:42:18.172Z,-74
2019-03-27T02:44:47.283Z,-73
2019-03-27T02:47:16.398Z,-74
2019-03-27T02:49:45.477Z,-74
2019-03-27T02:52:14.622Z,-73
2019-03-27T02:54:43.741Z,-74
2019-03-27T02:57:13.099Z,-74
2019-03-27T02:59:42.214Z,-74
2019-03-27T03:02:11.332Z,-74
2019-03-27T03:04:41.048Z,-74
2019-03-27T03:07:10.394Z,-74
2019-03-27T03:09:39.474Z,-74
2019-03-27T03:12:08.591Z,-73
2019-03-27T03:14:37.692Z,-74
2019-03-27T03:17:07.100Z,-74
2019-03-27T03:19:36.184Z,-74
2019-03-27T03:22:05.519Z,-73
2019-03-27T03:24:35.102Z,-74
2019-03-27T03:27:04.138Z,-74
2019-03-27T03:29:33.822Z,-74
2019-03-27T03:32:03.312Z,-74
2019-03-27T03:34:32.466Z,-74
2019-03-27T03:37:01.826Z,-74
2019-03-27T03:39:31.180Z,-73
2019-03-27T03:42:00.291Z,-72
2019-03-27T03:44:29.401Z,-74
2019-03-27T03:47:00.405Z,-73
2019-03-27T03:49:29.572Z,-74
2019-03-27T03:51:58.648Z,-73
2019-03-27T03:54:28.054Z,-72
2019-03-27T03:56:57.233Z,-73
2019-03-27T03:59:29.319Z,-73
2019-03-27T04:02:01.604Z,-73
2019-03-27T04:04:31.610Z,-73
2019-03-27T04:07:01.032Z,-73
2019-03-27T04:09:30.166Z,-73
2019-03-27T04:11:59.229Z,-73
2019-03-27T04:14:28.338Z,-74
2019-03-27T04:16:57.424Z,-73
2019-03-27T04:19:26.525Z,-73
2019-03-27T04:21:55.631Z,-74
2019-03-27T04:24:24.806Z,-73
2019-03-27T04:26:54.213Z,-74
2019-03-27T04:29:23.298Z,-74
2019-03-27T04:31:52.638Z,-74
2019-03-27T04:34:21.753Z,-74
2019-03-27T04:36:51.095Z,-74
2019-03-27T04:39:20.487Z,-74
2019-03-27T04:41:49.846Z,-74
2019-03-27T04:44:19.177Z,-74
2019-03-27T04:46:48.586Z,-73
2019-03-27T04:49:17.695Z,-75
2019-03-27T04:51:46.779Z,-73
2019-03-27T04:54:17.909Z,-73
2019-03-27T04:56:47.056Z,-73
2019-03-27T04:59:16.132Z,-73
2019-03-27T05:01:45.468Z,-72
2019-03-27T05:04:14.722Z,-73
2019-03-27T05:06:44.117Z,-72
2019-03-27T05:09:13.239Z,-73
2019-03-27T05:11:42.336Z,-73
2019-03-27T05:14:11.436Z,-73
2019-03-27T05:16:40.618Z,-74
2019-03-27T05:19:09.760Z,-75
2019-03-27T05:21:38.970Z,-73
2019-03-27T05:24:08.326Z,-73
2019-03-27T05:26:37.755Z,-73
2019-03-27T05:29:07.193Z,-73
2019-03-27T05:31:36.547Z,-73
2019-03-27T05:34:05.620Z,-73
2019-03-27T05:36:34.724Z,-73
2019-03-27T05:39:05.077Z,-67
2019-03-27T05:41:34.290Z,-67
2019-03-27T05:44:03.799Z,-67
2019-03-27T05:46:33.294Z,-67
2019-03-27T05:49:03.120Z,-67
2019-03-27T05:51:32.616Z,-67
2019-03-27T05:54:01.929Z,-67
2019-03-27T05:56:32.252Z,-67
2019-03-27T05:59:01.450Z,-65
2019-03-27T06:01:31.147Z,-66
2019-03-27T06:04:01.164Z,-66
2019-03-27T06:06:30.383Z,-67
2019-03-27T06:08:59.579Z,-68
2019-03-27T06:11:29.074Z,-67
2019-03-27T06:13:58.584Z,-66
2019-03-27T06:16:28.097Z,-67
2019-03-27T06:18:57.601Z,-67
2019-03-27T06:21:27.111Z,-67
2019-03-27T06:23:56.517Z,-68
2019-03-27T06:26:25.818Z,-68
2019-03-27T06:28:55.211Z,-67
2019-03-27T06:31:24.526Z,-67
2019-03-27T06:33:53.720Z,-67
2019-03-27T06:36:23.235Z,-67
2019-03-27T06:38:52.652Z,-67
2019-03-27T06:41:22.343Z,-67
2019-03-27T06:43:51.634Z,-67
2019-03-27T06:46:20.842Z,-67
2019-03-27T06:48:50.040Z,-68
2019-03-27T06:51:19.636Z,-67
2019-03-27T06:53:49.281Z,-67
2019-03-27T06:56:18.558Z,-67
2019-03-27T06:58:54.475Z,-67
2019-03-27T07:01:19.211Z,-67
2019-03-27T07:03:54.340Z,-67
2019-03-27T07:06:23.843Z,-68
2019-03-27T07:08:53.770Z,-67
2019-03-27T07:11:23.076Z,-68
2019-03-27T07:13:52.570Z,-68
2019-03-27T07:16:21.735Z,-68
2019-03-27T07:18:51.182Z,-68
2019-03-27T07:21:20.574Z,-68
2019-03-27T07:23:49.890Z,-68
2019-03-27T07:26:19.195Z,-68
2019-03-27T07:28:48.893Z,-68
2019-03-27T07:31:18.394Z,-68
2019-03-27T07:33:47.812Z,-68
2019-03-27T07:36:17.315Z,-68
2019-03-27T07:38:46.752Z,-67
2019-03-27T07:41:16.124Z,-68
2019-03-27T07:43:45.591Z,-67
2019-03-27T07:46:15.232Z,-68
2019-03-27T07:48:53.864Z,-69
2019-03-27T07:51:15.985Z,-68
2019-03-27T07:53:45.792Z,-68
2019-03-27T07:56:15.005Z,-68
2019-03-27T07:58:44.311Z,-69
2019-03-27T08:01:14.214Z,-69
2019-03-27T08:03:43.835Z,-69
2019-03-27T08:06:13.233Z,-68
2019-03-27T08:08:50.721Z,-68
2019-03-27T08:11:20.974Z,-68
2019-03-27T08:13:50.969Z,-67
2019-03-27T08:16:20.392Z,-67
2019-03-27T08:18:49.876Z,-68
2019-03-27T08:21:19.287Z,-68
2019-03-27T08:23:49.214Z,-67
2019-03-27T08:26:18.607Z,-67
2019-03-27T08:28:48.102Z,-67
2019-03-27T08:31:17.413Z,-67
2019-03-27T08:33:46.906Z,-67
2019-03-27T08:36:16.117Z,-67
2019-03-27T08:38:45.316Z,-67
2019-03-27T08:41:14.709Z,-67
2019-03-27T08:43:44.339Z,-67
2019-03-27T08:46:13.633Z,-68
2019-03-27T08:48:45.000Z,-67
2019-03-27T08:51:15.830Z,-66
2019-03-27T08:53:45.120Z,-66
2019-03-27T08:56:14.617Z,-66
2019-03-27T08:58:44.744Z,-66
2019-03-27T09:01:14.515Z,-66
2019-03-27T09:03:43.963Z,-66
2019-03-27T09:06:16.175Z,-66
2019-03-27T09:08:45.639Z,-66
2019-03-27T09:11:18.579Z,-67
2019-03-27T09:13:49.441Z,-66
2019-03-27T09:16:21.479Z,-69
2019-03-27T09:18:51.441Z,-66
2019-03-27T09:21:20.947Z,-66
2019-03-27T09:23:50.155Z,-66
2019-03-27T09:26:19.651Z,-66
2019-03-27T09:28:50.354Z,-66
2019-03-27T09:31:19.889Z,-66
2019-03-27T09:33:49.397Z,-66
2019-03-27T09:36:18.862Z,-66
2019-03-27T09:38:48.712Z,-66
2019-03-27T09:41:21.469Z,-66
2019-03-27T09:43:51.418Z,-66
2019-03-27T09:46:21.060Z,-66
2019-03-27T09:48:52.114Z,-66
2019-03-27T09:51:25.331Z,-68
2019-03-27T09:53:56.414Z,-67
2019-03-27T09:56:27.914Z,-67
2019-03-27T09:58:57.902Z,-67
2019-03-27T10:01:29.076Z,-68
2019-03-27T10:04:02.329Z,-67
2019-03-27T10:06:31.825Z,-70
2019-03-27T10:09:02.573Z,-67
2019-03-27T10:11:32.093Z,-67
2019-03-27T10:14:01.780Z,-67
2019-03-27T10:16:31.279Z,-67
2019-03-27T10:19:01.404Z,-66
2019-03-27T10:21:30.816Z,-67
2019-03-27T10:24:00.320Z,-67
2019-03-27T10:26:29.728Z,-68
2019-03-27T10:28:59.029Z,-67
2019-03-27T10:31:28.823Z,-67
2019-03-27T10:33:58.344Z,-67
2019-03-27T10:36:27.549Z,-67
2019-03-27T10:38:57.249Z,-67
2019-03-27T10:41:26.857Z,-67
2019-03-27T10:43:57.573Z,-66
2019-03-27T10:46:26.998Z,-68
2019-03-27T10:48:56.202Z,-66
2019-03-27T10:51:25.702Z,-66
2019-03-27T10:53:55.206Z,-66
2019-03-27T10:56:25.110Z,-66
2019-03-27T10:58:54.329Z,-66
2019-03-27T11:01:23.632Z,-66
2019-03-27T11:03:53.231Z,-66
2019-03-27T11:06:22.951Z,-66
2019-03-27T11:08:52.468Z,-66
2019-03-27T11:11:25.770Z,-66
2019-03-27T11:13:55.256Z,-69
2019-03-27T11:16:24.670Z,-67
2019-03-27T11:18:54.068Z,-68
2019-03-27T11:21:23.564Z,-67
2019-03-27T11:23:52.771Z,-66
2019-03-27T11:26:22.182Z,-66
2019-03-27T11:28:51.567Z,-67
2019-03-27T11:31:21.436Z,-67
2019-03-27T11:33:51.000Z,-68
2019-03-27T11:36:20.415Z,-67
2019-03-27T11:38:49.804Z,-67
2019-03-27T11:41:19.113Z,-69
2019-03-27T11:43:54.605Z,-67
2019-03-27T11:46:19.769Z,-67
2019-03-27T11:48:49.262Z,-67
2019-03-27T11:51:18.771Z,-67
2019-03-27T11:53:47.973Z,-67
2019-03-27T11:56:17.488Z,-68
2019-03-27T11:58:47.149Z,-66
2019-03-27T12:01:16.795Z,-66
2019-03-27T12:03:47.125Z,-66
2019-03-27T12:06:16.735Z,-66
2019-03-27T12:08:46.037Z,-66
2019-03-27T12:11:15.450Z,-67
2019-03-27T12:13:44.966Z,-67
2019-03-27T12:16:14.352Z,-69
2019-03-27T12:18:43.846Z,-67
2019-03-27T12:21:13.371Z,-66
2019-03-27T12:23:42.864Z,-67
2019-03-27T12:26:12.271Z,-67
2019-03-27T12:28:41.889Z,-66
2019-03-27T12:31:12.297Z,-66
2019-03-27T12:33:41.814Z,-66
2019-03-27T12:36:11.425Z,-67
2019-03-27T12:38:46.563Z,-67
2019-03-27T12:41:16.024Z,-66
2019-03-27T12:43:45.461Z,-67
2019-03-27T12:46:14.776Z,-69
2019-03-27T12:48:44.580Z,-67
2019-03-27T12:51:14.097Z,-66
2019-03-27T12:53:43.701Z,-66
2019-03-27T12:56:12.979Z,-66
2019-03-27T12:58:42.504Z,-66
2019-03-27T13:01:12.013Z,-66
2019-03-27T13:03:44.350Z,-66
2019-03-27T13:06:12.364Z,-66
2019-03-27T13:08:41.852Z,-67
2019-03-27T13:11:11.166Z,-67
2019-03-27T13:13:40.666Z,-67
2019-03-27T13:16:13.911Z,-66
2019-03-27T13:18:43.289Z,-67
2019-03-27T13:21:25.291Z,-67
2019-03-27T13:23:43.617Z,-67
2019-03-27T13:26:13.612Z,-66
2019-03-27T13:28:48.808Z,-67
2019-03-27T13:31:14.373Z,-67
2019-03-27T13:33:46.191Z,-67
2019-03-27T13:36:16.026Z,-66
2019-03-27T13:38:45.599Z,-66
2019-03-27T13:41:15.470Z,-66
2019-03-27T13:43:45.002Z,-67
2019-03-27T13:46:14.276Z,-67
2019-03-27T13:48:44.093Z,-66
2019-03-27T13:51:13.570Z,-66
2019-03-27T13:53:42.826Z,-66
2019-03-27T13:56:12.217Z,-66
2019-03-27T13:58:41.712Z,-66
2019-03-27T14:01:13.039Z,-66
2019-03-27T14:03:45.547Z,-66
2019-03-27T14:06:15.060Z,-65
2019-03-27T14:08:44.576Z,-65
2019-03-27T14:11:13.869Z,-65
2019-03-27T14:13:43.647Z,-65
2019-03-27T14:16:13.285Z,-65
2019-03-27T14:18:44.582Z,-66
2019-03-27T14:21:16.662Z,-69
2019-03-27T14:23:46.307Z,-66
2019-03-27T14:26:15.733Z,-65
2019-03-27T14:28:45.121Z,-68
2019-03-27T14:31:14.631Z,-67
2019-03-27T14:33:43.822Z,-67
2019-03-27T14:36:19.077Z,-68
2019-03-27T14:38:48.859Z,-66
2019-03-27T14:41:25.820Z,-65
2019-03-27T14:43:55.260Z,-66
2019-03-27T14:46:24.771Z,-68
2019-03-27T14:48:54.067Z,-68
2019-03-27T14:51:23.275Z,-68
2019-03-27T14:53:52.672Z,-68
2019-03-27T14:56:22.171Z,-68
2019-03-27T14:58:51.497Z,-68
2019-03-27T15:01:20.984Z,-68
2019-03-27T15:03:50.526Z,-68
2019-03-27T15:06:19.997Z,-68
2019-03-27T15:08:49.494Z,-68
2019-03-27T15:11:19.000Z,-67
2019-03-27T15:13:48.416Z,-68
2019-03-27T15:16:18.010Z,-68
2019-03-27T15:18:47.619Z,-69
2019-03-27T15:21:17.552Z,-67
2019-03-27T15:23:51.138Z,-66
2019-03-27T15:26:20.347Z,-65
2019-03-27T15:28:50.974Z,-65
2019-03-27T15:31:21.116Z,-65
2019-03-27T15:33:51.535Z,-65
2019-03-27T15:36:20.841Z,-66
2019-03-27T15:38:50.333Z,-66
2019-03-27T15:41:19.830Z,-66
2019-03-27T15:43:49.644Z,-67
2019-03-27T15:46:18.856Z,-67
2019-03-27T15:48:48.365Z,-67
2019-03-27T15:51:17.962Z,-66
2019-03-27T15:53:47.874Z,-67
2019-03-27T15:56:17.299Z,-67
2019-03-27T15:58:46.893Z,-67
2019-03-27T16:01:16.307Z,-67
2019-03-27T16:03:45.793Z,-66
2019-03-27T16:06:15.010Z,-66
2019-03-27T16:08:44.209Z,-66
2019-03-27T16:11:13.612Z,-66
2019-03-27T16:13:43.007Z,-68
2019-03-27T16:16:31.774Z,-68
2019-03-27T16:19:01.287Z,-67
2019-03-27T16:21:30.775Z,-68
2019-03-27T16:24:06.310Z,-70
2019-03-27T16:26:31.440Z,-70
2019-03-27T16:29:00.830Z,-70
2019-03-27T16:31:30.352Z,-68
2019-03-27T16:33:59.650Z,-67
2019-03-27T16:36:29.146Z,-69
2019-03-27T16:38:58.569Z,-68
2019-03-27T16:41:28.152Z,-68
2019-03-27T16:43:57.477Z,-67
2019-03-27T16:46:27.027Z,-67
2019-03-27T16:48:57.400Z,-68
2019-03-27T16:51:26.902Z,-68
2019-03-27T16:53:56.089Z,-68
2019-03-27T16:56:27.731Z,-67
2019-03-27T16:58:57.157Z,-67
2019-03-27T17:01:26.472Z,-69
2019-03-27T17:03:55.773Z,-69
2019-03-27T17:06:25.177Z,-68
2019-03-27T17:08:54.421Z,-68
2019-03-27T17:11:23.881Z,-68
2019-03-27T17:13:53.379Z,-68
2019-03-27T17:16:23.100Z,-68
2019-03-27T17:18:52.600Z,-68
2019-03-27T17:21:21.785Z,-68
2019-03-27T17:23:51.106Z,-68
2019-03-27T17:26:20.908Z,-68
2019-03-27T17:28:50.329Z,-66
2019-03-27T17:31:19.826Z,-67
2019-03-27T17:33:49.236Z,-66
2019-03-27T17:36:18.639Z,-67
2019-03-27T17:38:48.032Z,-67
2019-03-27T17:41:17.362Z,-67
2019-03-27T17:43:46.843Z,-66
2019-03-27T17:46:16.054Z,-67
2019-03-27T17:48:45.357Z,-67
2019-03-27T17:51:14.744Z,-67
2019-03-27T17:53:44.261Z,-67
2019-03-27T17:56:13.473Z,-67
2019-03-27T17:58:42.965Z,-67
2019-03-27T18:01:12.465Z,-67
2019-03-27T18:03:42.002Z,-67
2019-03-27T18:06:11.475Z,-67
2019-03-27T18:08:41.100Z,-67
2019-03-27T18:11:10.590Z,-67
2019-03-27T18:13:39.902Z,-66
2019-03-27T18:16:09.100Z,-67
2019-03-27T18:18:38.403Z,-67
2019-03-27T18:21:07.904Z,-67
2019-03-27T18:23:45.715Z,-66
2019-03-27T18:26:08.963Z,-67
2019-03-27T18:28:38.376Z,-67
2019-03-27T18:31:07.573Z,-66
2019-03-27T18:33:37.074Z,-67
2019-03-27T18:36:11.694Z,-67
2019-03-27T18:38:41.607Z,-67
2019-03-27T18:41:11.026Z,-68
2019-03-27T18:43:40.539Z,-67
2019-03-27T18:46:10.186Z,-68
2019-03-27T18:48:40.003Z,-69
2019-03-27T18:51:09.468Z,-69
2019-03-27T18:53:39.068Z,-69
2019-03-27T18:56:08.550Z,-69
2019-03-27T18:58:38.101Z,-68
2019-03-27T19:01:07.585Z,-69
2019-03-27T19:03:37.079Z,-67
2019-03-27T19:06:06.694Z,-67
2019-03-27T19:08:36.478Z,-67
2019-03-27T19:11:05.998Z,-68
2019-03-27T19:13:35.427Z,-68
2019-03-27T19:16:04.825Z,-68
2019-03-27T19:18:41.240Z,-68
2019-03-27T19:21:10.846Z,-68
2019-03-27T19:23:48.706Z,-67
2019-03-27T19:26:21.082Z,-68
2019-03-27T19:28:53.804Z,-68
2019-03-27T19:31:22.547Z,-68
2019-03-27T19:33:51.981Z,-67
2019-03-27T19:36:21.570Z,-67
2019-03-27T19:38:51.003Z,-68
2019-03-27T19:41:20.272Z,-68
2019-03-27T19:43:51.492Z,-66
2019-03-27T19:46:21.124Z,-65
2019-03-27T19:48:50.531Z,-65
2019-03-27T19:51:20.021Z,-65
2019-03-27T19:53:49.750Z,-64
2019-03-27T19:56:19.375Z,-65
2019-03-27T19:58:48.661Z,-65
2019-03-27T20:01:18.184Z,-65
2019-03-27T20:03:47.575Z,-65
2019-03-27T20:06:19.243Z,-65
2019-03-27T20:08:48.837Z,-65
2019-03-27T20:11:19.364Z,-65
2019-03-27T20:13:48.539Z,-65
2019-03-27T20:16:17.867Z,-65
2019-03-27T20:18:49.025Z,-65
2019-03-27T20:21:19.094Z,-65
2019-03-27T20:23:49.252Z,-65
2019-03-27T20:26:18.851Z,-65
2019-03-27T20:28:51.531Z,-66
2019-03-27T20:31:21.133Z,-64
2019-03-27T20:33:54.278Z,-64
2019-03-27T20:36:26.505Z,-65
2019-03-27T20:39:04.846Z,-65
2019-03-27T20:41:31.170Z,-65
2019-03-27T20:44:00.972Z,-65
2019-03-27T20:46:30.497Z,-65
2019-03-27T20:49:00.078Z,-64
2019-03-27T20:51:29.388Z,-65
2019-03-27T20:54:01.247Z,-65
2019-03-27T20:56:29.830Z,-65
2019-03-27T20:59:01.267Z,-65
2019-03-27T21:01:30.381Z,-64
2019-03-27T21:04:01.162Z,-65
2019-03-27T21:06:30.716Z,-64
2019-03-27T21:09:00.130Z,-65
2019-03-27T21:11:29.737Z,-65
2019-03-27T21:13:59.672Z,-65
2019-03-27T21:16:32.374Z,-65
2019-03-27T21:19:01.744Z,-65
2019-03-27T21:21:31.474Z,-65
2019-03-27T21:24:00.758Z,-65
2019-03-27T21:26:39.514Z,-65
2019-03-27T21:29:09.091Z,-65
2019-03-27T21:31:38.485Z,-65
2019-03-27T21:34:11.342Z,-65
2019-03-27T21:36:40.674Z,-66
2019-03-27T21:39:14.471Z,-65
2019-03-27T21:41:45.228Z,-65
2019-03-27T21:44:14.822Z,-65
2019-03-27T21:46:52.568Z,-65
2019-03-27T21:49:21.823Z,-65
2019-03-27T21:51:51.023Z,-65
2019-03-27T21:54:24.214Z,-65
2019-03-27T21:56:58.100Z,-65
2019-03-27T21:59:27.645Z,-65
2019-03-27T22:01:56.937Z,-65
2019-03-27T22:04:26.426Z,-65
2019-03-27T22:06:55.934Z,-65
2019-03-27T22:09:25.067Z,-65
2019-03-27T22:11:54.538Z,-65
2019-03-27T22:14:30.650Z,-65
2019-03-27T22:17:00.107Z,-65
2019-03-27T22:19:30.631Z,-65
2019-03-27T22:22:00.054Z,-65
2019-03-27T22:24:29.545Z,-65
2019-03-27T22:26:59.052Z,-65
2019-03-27T22:29:29.386Z,-65
2019-03-27T22:31:58.924Z,-65
2019-03-27T22:34:28.603Z,-65
2019-03-27T22:36:57.805Z,-65
2019-03-27T22:39:27.601Z,-65
2019-03-27T22:41:57.010Z,-65
2019-03-27T22:44:26.321Z,-65
2019-03-27T22:46:55.921Z,-65
2019-03-27T22:49:25.586Z,-65
2019-03-27T22:51:55.033Z,-65
2019-03-27T22:54:24.250Z,-65
2019-03-27T22:56:55.068Z,-65
2019-03-27T22:59:24.283Z,-68
2019-03-27T23:01:53.883Z,-69
2019-03-27T23:04:23.400Z,-70
2019-03-27T23:06:52.702Z,-66
2019-03-27T23:09:22.001Z,-66
2019-03-27T23:11:51.494Z,-66
2019-03-27T23:14:20.809Z,-66
2019-03-27T23:16:50.013Z,-66
2019-03-27T23:19:19.396Z,-66
2019-03-27T23:21:48.713Z,-66
2019-03-27T23:24:18.206Z,-66
2019-03-27T23:26:47.818Z,-66
2019-03-27T23:29:17.025Z,-67
2019-03-27T23:31:47.555Z,-66
2019-03-27T23:34:17.175Z,-66
2019-03-27T23:36:46.766Z,-66
2019-03-27T23:39:16.275Z,-66
2019-03-27T23:41:45.478Z,-66
2019-03-27T23:44:14.978Z,-66
2019-03-27T23:46:44.183Z,-66
2019-03-27T23:49:13.382Z,-66
2019-03-27T23:51:42.784Z,-66
2019-03-27T23:54:12.285Z,-66
2019-03-27T23:56:41.497Z,-66
2019-03-27T23:59:10.988Z,-66
